createdAt,value
2023-05-10T00:01:23.467Z,40.34
2023-05-10T00:04:50.675Z,40.58
2023-05-10T00:08:17.626Z,40.65
2023-05-10T00:11:45.073Z,40.92
2023-05-10T00:15:16.089Z,40.84
2023-05-10T00:18:43.334Z,40.74
2023-05-10T00:22:10.250Z,41.05
2023-05-10T00:25:37.206Z,41.09
2023-05-10T00:29:04.582Z,41.10
2023-05-10T00:32:32.306Z,41.20
2023-05-10T00:36:00.874Z,41.25
2023-05-10T00:39:30.047Z,41.45
2023-05-10T00:43:02.433Z,41.42
2023-05-10T00:46:32.424Z,41.47
2023-05-10T00:49:59.395Z,41.63
2023-05-10T00:53:27.348Z,41.66
2023-05-10T00:56:54.232Z,41.82
2023-05-10T01:00:21.873Z,41.86
2023-05-10T01:03:49.341Z,41.96
2023-05-10T01:07:16.931Z,42.14
2023-05-10T01:10:44.372Z,42.16
2023-05-10T01:14:12.079Z,42.03
2023-05-10T01:17:40.988Z,42.12
2023-05-10T01:21:20.947Z,42.12
2023-05-10T01:25:22.924Z,42.40
2023-05-10T01:29:21.666Z,42.57
2023-05-10T01:32:56.509Z,42.30
2023-05-10T01:36:32.857Z,42.51
2023-05-10T01:40:10.633Z,42.49
2023-05-10T01:43:45.912Z,42.90
2023-05-10T01:47:16.739Z,42.82
2023-05-10T01:50:46.191Z,42.60
2023-05-10T01:54:16.168Z,42.63
2023-05-10T01:57:46.091Z,42.90
2023-05-10T02:01:14.951Z,42.77
2023-05-10T02:04:43.448Z,43.15
2023-05-10T02:08:12.143Z,43.01
2023-05-10T02:11:41.674Z,43.08
2023-05-10T02:15:13.077Z,43.23
2023-05-10T02:18:43.297Z,43.49
2023-05-10T02:22:12.725Z,43.35
2023-05-10T02:25:41.067Z,43.37
2023-05-10T02:29:09.778Z,43.71
2023-05-10T02:32:38.137Z,43.66
2023-05-10T02:36:06.664Z,43.76
2023-05-10T02:39:35.805Z,43.90
2023-05-10T02:43:07.272Z,44.23
2023-05-10T02:46:34.433Z,44.15
2023-05-10T02:50:02.647Z,44.11
2023-05-10T02:53:37.622Z,44.02
2023-05-10T02:57:07.172Z,44.11
2023-05-10T03:00:34.080Z,44.39
2023-05-10T03:04:00.772Z,44.24
2023-05-10T03:07:29.056Z,44.38
2023-05-10T03:11:07.891Z,44.39
2023-05-10T03:14:46.417Z,44.37
2023-05-10T03:18:17.733Z,44.57
2023-05-10T03:21:49.856Z,44.61
2023-05-10T03:25:19.245Z,44.60
2023-05-10T03:28:48.238Z,44.75
2023-05-10T03:32:15.309Z,44.94
2023-05-10T03:35:42.722Z,44.56
2023-05-10T03:39:10.275Z,44.40
2023-05-10T03:42:37.743Z,44.85
2023-05-10T03:46:05.684Z,45.08
2023-05-10T03:49:32.412Z,44.80
2023-05-10T03:52:59.635Z,45.39
2023-05-10T03:56:27.451Z,44.92
2023-05-10T03:59:54.889Z,45.15
2023-05-10T04:03:22.710Z,45.13
2023-05-10T04:06:49.582Z,45.04
2023-05-10T04:10:17.778Z,45.27
2023-05-10T04:13:45.324Z,45.22
2023-05-10T04:17:12.264Z,45.33
2023-05-10T04:20:39.037Z,45.16
2023-05-10T04:24:06.225Z,44.98
2023-05-10T04:27:33.660Z,45.16
2023-05-10T04:31:06.456Z,45.48
2023-05-10T04:34:35.424Z,45.28
2023-05-10T04:38:02.832Z,45.47
2023-05-10T04:41:29.968Z,45.46
2023-05-10T04:44:57.154Z,45.44
2023-05-10T04:48:23.819Z,45.53
2023-05-10T04:51:50.555Z,45.45
2023-05-10T04:55:17.731Z,45.67
2023-05-10T04:58:45.713Z,45.51
2023-05-10T05:02:13.006Z,45.61
2023-05-10T05:05:40.924Z,45.47
2023-05-10T05:09:08.098Z,45.41
2023-05-10T05:12:35.864Z,45.48
2023-05-10T05:16:04.649Z,45.55
2023-05-10T05:19:33.360Z,45.43
2023-05-10T05:23:00.291Z,45.45
2023-05-10T05:26:27.102Z,45.55
2023-05-10T05:29:55.112Z,45.35
2023-05-10T05:33:22.482Z,45.47
2023-05-10T05:36:50.222Z,45.49
2023-05-10T05:40:18.381Z,45.49
2023-05-10T05:43:45.957Z,45.45
2023-05-10T05:47:15.603Z,45.48
2023-05-10T05:50:42.920Z,45.47
2023-05-10T05:54:09.945Z,45.45
2023-05-10T05:57:41.077Z,45.27
2023-05-10T06:01:08.893Z,45.25
2023-05-10T06:04:36.633Z,45.16
2023-05-10T06:08:03.602Z,45.09
2023-05-10T06:11:33.327Z,45.17
2023-05-10T06:15:00.258Z,45.14
2023-05-10T06:18:28.324Z,45.01
2023-05-10T06:21:55.163Z,44.91
2023-05-10T06:25:22.534Z,44.77
2023-05-10T06:28:50.219Z,44.81
2023-05-10T06:32:18.457Z,44.69
2023-05-10T06:35:44.874Z,44.76
2023-05-10T06:39:12.914Z,44.63
2023-05-10T06:42:39.802Z,44.59
2023-05-10T06:46:06.876Z,44.47
2023-05-10T06:49:34.192Z,44.15
2023-05-10T06:53:01.256Z,44.14
2023-05-10T06:56:29.684Z,43.84
2023-05-10T07:00:00.588Z,43.89
2023-05-10T07:03:28.664Z,43.81
2023-05-10T07:06:56.033Z,43.69
2023-05-10T07:10:23.181Z,43.33
2023-05-10T07:13:50.259Z,43.47
2023-05-10T07:17:16.977Z,43.46
2023-05-10T07:20:43.902Z,43.20
2023-05-10T07:24:14.682Z,42.91
2023-05-10T07:27:41.703Z,42.86
2023-05-10T07:31:08.559Z,42.61
2023-05-10T07:34:35.228Z,42.49
2023-05-10T07:38:02.399Z,42.35
2023-05-10T07:41:29.230Z,42.32
2023-05-10T07:44:56.163Z,42.33
2023-05-10T07:48:22.746Z,42.12
2023-05-10T07:51:51.575Z,41.86
2023-05-10T07:55:18.328Z,41.73
2023-05-10T07:58:45.399Z,41.58
2023-05-10T08:02:12.603Z,41.47
2023-05-10T08:05:39.519Z,41.14
2023-05-10T08:09:06.327Z,40.82
2023-05-10T08:12:33.436Z,40.81
2023-05-10T08:16:00.659Z,40.85
2023-05-10T08:19:28.756Z,40.56
2023-05-10T08:22:56.381Z,40.45
2023-05-10T08:26:23.369Z,40.03
2023-05-10T08:29:50.757Z,39.84
2023-05-10T08:33:17.668Z,39.86
2023-05-10T08:36:45.279Z,39.61
2023-05-10T08:40:14.584Z,39.56
2023-05-10T08:43:42.741Z,39.27
2023-05-10T08:47:11.617Z,39.13
2023-05-10T08:50:40.664Z,38.89
2023-05-10T08:54:08.104Z,38.72
2023-05-10T08:57:36.014Z,38.43
2023-05-10T09:01:03.426Z,38.34
2023-05-10T09:04:30.985Z,38.28
2023-05-10T09:07:57.930Z,38.20
2023-05-10T09:11:26.346Z,38.15
2023-05-10T09:14:55.061Z,37.76
2023-05-10T09:18:22.558Z,37.60
2023-05-10T09:21:49.840Z,37.49
2023-05-10T09:25:19.398Z,37.38
2023-05-10T09:28:57.323Z,37.30
2023-05-10T09:32:24.237Z,36.88
2023-05-10T09:35:54.102Z,36.96
2023-05-10T09:39:21.212Z,36.72
2023-05-10T09:42:57.045Z,36.54
2023-05-10T09:46:24.209Z,36.63
2023-05-10T09:49:57.366Z,36.37
2023-05-10T09:53:24.242Z,36.42
2023-05-10T09:56:50.889Z,36.19
2023-05-10T10:00:21.877Z,35.92
2023-05-10T10:03:49.308Z,36.10
2023-05-10T10:07:16.290Z,36.24
2023-05-10T10:10:46.490Z,35.71
2023-05-10T10:14:14.158Z,35.64
2023-05-10T10:17:42.379Z,35.47
2023-05-10T10:21:10.015Z,35.49
2023-05-10T10:24:37.426Z,35.54
2023-05-10T10:28:19.252Z,35.53
2023-05-10T10:31:54.942Z,34.96
2023-05-10T10:35:21.746Z,35.12
2023-05-10T10:39:05.239Z,35.04
2023-05-10T10:42:51.053Z,34.85
2023-05-10T10:46:19.431Z,34.88
2023-05-10T10:49:53.864Z,34.56
2023-05-10T10:53:21.212Z,34.49
2023-05-10T10:57:15.896Z,34.44
2023-05-10T11:00:45.835Z,34.44
2023-05-10T11:04:26.822Z,34.26
2023-05-10T11:08:01.530Z,33.96
2023-05-10T11:11:28.191Z,33.82
2023-05-10T11:14:59.501Z,33.67
2023-05-10T11:18:30.717Z,33.92
2023-05-10T11:22:18.356Z,34.12
2023-05-10T11:25:47.924Z,33.83
2023-05-10T11:29:15.042Z,33.46
2023-05-10T11:32:44.257Z,33.37
2023-05-10T11:36:15.157Z,33.48
2023-05-10T11:39:48.585Z,33.65
2023-05-10T11:43:15.750Z,33.37
2023-05-10T11:46:42.878Z,33.13
2023-05-10T11:50:11.174Z,33.01
2023-05-10T11:53:37.923Z,33.19
2023-05-10T11:57:06.092Z,33.19
2023-05-10T12:00:34.280Z,32.69
2023-05-10T12:04:03.089Z,32.88
2023-05-10T12:07:29.993Z,32.39
2023-05-10T12:11:07.292Z,32.41
2023-05-10T12:14:38.158Z,32.49
2023-05-10T12:18:06.674Z,32.35
2023-05-10T12:21:33.869Z,32.06
2023-05-10T12:25:03.285Z,31.93
2023-05-10T12:28:34.621Z,31.74
2023-05-10T12:32:04.352Z,31.64
2023-05-10T12:35:34.491Z,31.30
2023-05-10T12:39:07.226Z,31.19
2023-05-10T12:42:33.490Z,31.23
2023-05-10T12:46:00.714Z,30.93
2023-05-10T12:49:27.565Z,30.82
2023-05-10T12:52:54.568Z,30.60
2023-05-10T12:56:21.596Z,30.32
2023-05-10T12:59:48.692Z,30.06
2023-05-10T13:03:16.902Z,29.80
2023-05-10T13:06:43.929Z,29.85
2023-05-10T13:10:12.557Z,29.83
2023-05-10T13:13:39.676Z,29.42
2023-05-10T13:17:06.514Z,29.34
2023-05-10T13:20:33.920Z,29.05
2023-05-10T13:24:01.458Z,28.98
2023-05-10T13:27:28.653Z,28.94
2023-05-10T13:30:56.872Z,28.91
2023-05-10T13:34:24.229Z,28.65
2023-05-10T13:37:50.950Z,28.77
2023-05-10T13:41:18.369Z,28.53
2023-05-10T13:44:45.889Z,28.56
2023-05-10T13:48:15.445Z,28.54
2023-05-10T13:51:45.162Z,28.69
2023-05-10T13:55:14.519Z,28.59
2023-05-10T13:58:41.763Z,28.49
2023-05-10T14:02:14.653Z,28.10
2023-05-10T14:05:42.962Z,28.25
2023-05-10T14:09:10.032Z,28.52
2023-05-10T14:12:36.995Z,27.68
2023-05-10T14:16:03.830Z,27.71
2023-05-10T14:19:33.828Z,27.80
2023-05-10T14:23:01.732Z,27.68
2023-05-10T14:26:28.803Z,27.66
2023-05-10T14:29:55.844Z,27.68
2023-05-10T14:33:23.150Z,27.58
2023-05-10T14:36:50.005Z,27.36
2023-05-10T14:40:18.270Z,27.15
2023-05-10T14:43:46.299Z,26.94
2023-05-10T14:47:13.344Z,27.06
2023-05-10T14:50:44.607Z,26.91
2023-05-10T14:54:11.472Z,26.84
2023-05-10T14:57:39.487Z,26.97
2023-05-10T15:01:06.922Z,26.78
2023-05-10T15:04:34.382Z,26.75
2023-05-10T15:08:01.583Z,26.73
2023-05-10T15:11:28.849Z,26.56
2023-05-10T15:14:57.127Z,26.49
2023-05-10T15:18:27.570Z,26.44
2023-05-10T15:21:54.539Z,26.41
2023-05-10T15:25:22.202Z,26.58
2023-05-10T15:28:49.338Z,26.49
2023-05-10T15:32:17.300Z,26.36
2023-05-10T15:35:44.022Z,26.35
2023-05-10T15:39:11.032Z,26.46
2023-05-10T15:42:38.314Z,26.49
2023-05-10T15:46:07.344Z,26.46
2023-05-10T15:49:37.571Z,26.43
2023-05-10T15:53:04.396Z,26.52
2023-05-10T15:56:31.586Z,26.65
2023-05-10T15:59:58.768Z,26.62
2023-05-10T16:03:25.384Z,26.73
2023-05-10T16:06:52.648Z,26.80
2023-05-10T16:10:20.393Z,26.64
2023-05-10T16:13:47.767Z,26.68
2023-05-10T16:17:17.165Z,26.85
2023-05-10T16:20:44.370Z,27.03
2023-05-10T16:24:11.493Z,27.08
2023-05-10T16:27:38.461Z,27.23
2023-05-10T16:31:05.684Z,27.38
2023-05-10T16:34:32.330Z,27.54
2023-05-10T16:37:59.777Z,27.52
2023-05-10T16:41:26.743Z,27.54
2023-05-10T16:44:53.597Z,27.67
2023-05-10T16:48:22.595Z,27.71
2023-05-10T16:51:49.787Z,27.84
2023-05-10T16:55:16.723Z,27.92
2023-05-10T16:58:44.018Z,28.15
2023-05-10T17:02:14.584Z,28.22
2023-05-10T17:05:43.771Z,28.16
2023-05-10T17:09:10.802Z,28.43
2023-05-10T17:12:37.628Z,28.45
2023-05-10T17:16:05.367Z,28.41
2023-05-10T17:19:33.369Z,28.45
2023-05-10T17:23:03.508Z,28.70
2023-05-10T17:26:34.828Z,28.69
2023-05-10T17:30:02.455Z,28.67
2023-05-10T17:33:29.156Z,28.84
2023-05-10T17:36:57.634Z,28.94
2023-05-10T17:40:25.319Z,28.98
2023-05-10T17:43:52.147Z,29.05
2023-05-10T17:47:19.263Z,29.16
2023-05-10T17:50:46.835Z,29.28
2023-05-10T17:54:16.213Z,29.45
2023-05-10T17:57:43.792Z,29.39
2023-05-10T18:01:10.961Z,29.37
2023-05-10T18:04:40.999Z,29.54
2023-05-10T18:08:08.917Z,29.53
2023-05-10T18:11:41.869Z,29.67
2023-05-10T18:15:10.338Z,29.69
2023-05-10T18:18:37.405Z,29.79
2023-05-10T18:22:06.070Z,29.76
2023-05-10T18:25:34.533Z,29.85
2023-05-10T18:29:01.887Z,29.89
2023-05-10T18:32:31.646Z,29.98
2023-05-10T18:36:02.786Z,30.06
2023-05-10T18:39:30.614Z,30.19
2023-05-10T18:43:00.546Z,30.32
2023-05-10T18:46:32.314Z,30.45
2023-05-10T18:50:00.466Z,30.54
2023-05-10T18:53:28.363Z,30.64
2023-05-10T18:56:58.059Z,30.67
2023-05-10T19:00:26.954Z,30.85
2023-05-10T19:03:54.983Z,30.90
2023-05-10T19:07:22.446Z,30.90
2023-05-10T19:10:53.837Z,31.04
2023-05-10T19:14:23.176Z,31.16
2023-05-10T19:18:09.052Z,31.28
2023-05-10T19:21:39.390Z,31.29
2023-05-10T19:25:13.589Z,31.42
2023-05-10T19:28:42.676Z,31.50
2023-05-10T19:32:15.187Z,31.66
2023-05-10T19:35:53.916Z,31.78
2023-05-10T19:39:28.070Z,31.83
2023-05-10T19:42:58.605Z,31.99
2023-05-10T19:46:27.630Z,32.19
2023-05-10T19:49:57.911Z,32.09
2023-05-10T19:53:27.537Z,32.29
2023-05-10T19:56:57.363Z,32.38
2023-05-10T20:00:27.999Z,32.49
2023-05-10T20:04:07.152Z,32.55
2023-05-10T20:07:37.382Z,32.66
2023-05-10T20:11:07.173Z,32.72
2023-05-10T20:14:35.110Z,32.73
2023-05-10T20:18:07.735Z,33.01
2023-05-10T20:21:36.323Z,33.00
2023-05-10T20:25:03.887Z,33.09
2023-05-10T20:28:32.234Z,33.20
2023-05-10T20:32:01.143Z,33.39
2023-05-10T20:35:28.545Z,33.37
2023-05-10T20:38:58.040Z,33.46
2023-05-10T20:42:28.232Z,33.54
2023-05-10T20:45:56.205Z,33.64
2023-05-10T20:49:24.994Z,33.58
2023-05-10T20:53:06.526Z,33.80
2023-05-10T20:56:36.132Z,33.68
2023-05-10T21:00:03.690Z,33.98
2023-05-10T21:03:31.546Z,33.95
2023-05-10T21:06:58.816Z,34.11
2023-05-10T21:10:28.577Z,34.17
2023-05-10T21:13:55.625Z,34.23
2023-05-10T21:17:23.257Z,34.26
2023-05-10T21:20:50.988Z,34.25
2023-05-10T21:24:17.838Z,34.36
2023-05-10T21:27:45.028Z,34.61
2023-05-10T21:31:12.738Z,34.68
2023-05-10T21:34:42.217Z,34.54
2023-05-10T21:38:09.368Z,34.81
2023-05-10T21:41:36.277Z,34.89
2023-05-10T21:45:03.594Z,34.88
2023-05-10T21:48:31.646Z,34.99
2023-05-10T21:51:59.597Z,35.20
2023-05-10T21:55:26.200Z,35.05
2023-05-10T21:58:53.300Z,35.22
2023-05-10T22:02:26.157Z,35.34
2023-05-10T22:05:53.355Z,35.45
2023-05-10T22:09:25.575Z,35.48
2023-05-10T22:12:53.383Z,35.61
2023-05-10T22:16:20.868Z,35.42
2023-05-10T22:19:48.284Z,35.55
2023-05-10T22:23:15.888Z,35.57
2023-05-10T22:26:43.561Z,35.70
2023-05-10T22:30:13.180Z,35.98
2023-05-10T22:33:47.699Z,36.03
2023-05-10T22:37:18.120Z,35.91
2023-05-10T22:40:46.521Z,36.00
2023-05-10T22:44:13.946Z,35.88
2023-05-10T22:47:40.912Z,36.21
2023-05-10T22:51:07.898Z,36.23
2023-05-10T22:54:36.258Z,36.36
2023-05-10T22:58:03.957Z,36.35
2023-05-10T23:01:32.283Z,36.57
2023-05-10T23:04:59.944Z,36.51
2023-05-10T23:08:28.518Z,36.70
2023-05-10T23:12:01.396Z,36.65
2023-05-10T23:15:30.030Z,36.95
2023-05-10T23:18:58.273Z,36.78
2023-05-10T23:22:25.548Z,36.82
2023-05-10T23:25:53.196Z,37.00
2023-05-10T23:29:19.733Z,36.93
2023-05-10T23:32:46.866Z,37.01
2023-05-10T23:36:14.479Z,37.08
2023-05-10T23:39:43.447Z,37.21
2023-05-10T23:43:11.492Z,37.34
2023-05-10T23:46:39.160Z,37.39
2023-05-10T23:50:09.381Z,37.34
2023-05-10T23:53:37.989Z,37.45
2023-05-10T23:57:07.448Z,37.41
